sensor_id;sensor_type;location;lat;lon;timestamp;temperature;humidity
30379;DHT22;17168;49.164;9.060;2022-11-20T00:00:52;7.80;93.80
30379;DHT22;17168;49.164;9.060;2022-11-20T00:03:24;7.70;94.40
30379;DHT22;17168;49.164;9.060;2022-11-20T00:06:00;7.60;95.00
30379;DHT22;17168;49.164;9.060;2022-11-20T00:08:31;7.50;95.60
30379;DHT22;17168;49.164;9.060;2022-11-20T00:11:04;7.30;96.20
30379;DHT22;17168;49.164;9.060;2022-11-20T00:13:36;7.30;97.50
30379;DHT22;17168;49.164;9.060;2022-11-20T00:16:09;7.10;97.30
30379;DHT22;17168;49.164;9.060;2022-11-20T00:18:41;7.10;98.10
30379;DHT22;17168;49.164;9.060;2022-11-20T00:21:18;7.00;98.60
30379;DHT22;17168;49.164;9.060;2022-11-20T00:23:53;7.00;99.00
30379;DHT22;17168;49.164;9.060;2022-11-20T00:26:26;6.90;99.40
30379;DHT22;17168;49.164;9.060;2022-11-20T00:28:58;6.80;99.80
30379;DHT22;17168;49.164;9.060;2022-11-20T00:31:30;6.80;99.90
30379;DHT22;17168;49.164;9.060;2022-11-20T00:34:04;6.70;99.90
30379;DHT22;17168;49.164;9.060;2022-11-20T00:36:37;6.70;99.90
30379;DHT22;17168;49.164;9.060;2022-11-20T00:39:09;6.70;99.90
30379;DHT22;17168;49.164;9.060;2022-11-20T00:41:40;6.70;99.90
30379;DHT22;17168;49.164;9.060;2022-11-20T00:44:12;6.60;99.90
30379;DHT22;17168;49.164;9.060;2022-11-20T00:46:44;6.60;99.90
30379;DHT22;17168;49.164;9.060;2022-11-20T00:49:15;6.60;99.90
30379;DHT22;17168;49.164;9.060;2022-11-20T00:51:48;6.60;99.90
30379;DHT22;17168;49.164;9.060;2022-11-20T00:54:20;6.60;99.90
30379;DHT22;17168;49.164;9.060;2022-11-20T00:56:52;6.70;99.90
30379;DHT22;17168;49.164;9.060;2022-11-20T00:59:24;6.60;99.90
30379;DHT22;17168;49.164;9.060;2022-11-20T01:01:55;6.50;99.90
30379;DHT22;17168;49.164;9.060;2022-11-20T01:04:27;6.50;99.90
30379;DHT22;17168;49.164;9.060;2022-11-20T01:07:00;6.50;99.90
30379;DHT22;17168;49.164;9.060;2022-11-20T01:09:32;6.50;99.90
30379;DHT22;17168;49.164;9.060;2022-11-20T01:12:04;6.40;99.90
30379;DHT22;17168;49.164;9.060;2022-11-20T01:14:36;6.40;99.90
30379;DHT22;17168;49.164;9.060;2022-11-20T01:17:07;6.40;99.90
30379;DHT22;17168;49.164;9.060;2022-11-20T01:19:39;6.40;99.90
30379;DHT22;17168;49.164;9.060;2022-11-20T01:22:12;6.40;99.90
30379;DHT22;17168;49.164;9.060;2022-11-20T01:24:44;6.40;99.90
30379;DHT22;17168;49.164;9.060;2022-11-20T01:27:15;6.40;99.90
30379;DHT22;17168;49.164;9.060;2022-11-20T01:29:47;6.40;99.90
30379;DHT22;17168;49.164;9.060;2022-11-20T01:32:19;6.40;99.90
30379;DHT22;17168;49.164;9.060;2022-11-20T01:34:50;6.40;99.90
30379;DHT22;17168;49.164;9.060;2022-11-20T01:37:23;6.40;99.90
30379;DHT22;17168;49.164;9.060;2022-11-20T01:39:55;6.40;99.90
30379;DHT22;17168;49.164;9.060;2022-11-20T01:42:27;6.40;99.90
30379;DHT22;17168;49.164;9.060;2022-11-20T01:48:07;6.30;99.90
30379;DHT22;17168;49.164;9.060;2022-11-20T01:50:39;6.40;99.90
30379;DHT22;17168;49.164;9.060;2022-11-20T01:53:13;6.30;99.90
30379;DHT22;17168;49.164;9.060;2022-11-20T01:55:46;6.40;99.90
30379;DHT22;17168;49.164;9.060;2022-11-20T01:58:22;6.40;99.90
30379;DHT22;17168;49.164;9.060;2022-11-20T02:00:56;6.40;99.90
30379;DHT22;17168;49.164;9.060;2022-11-20T02:03:28;6.40;99.90
30379;DHT22;17168;49.164;9.060;2022-11-20T02:06:04;6.40;99.90
30379;DHT22;17168;49.164;9.060;2022-11-20T02:08:41;6.40;99.90
30379;DHT22;17168;49.164;9.060;2022-11-20T02:11:18;6.40;99.90
30379;DHT22;17168;49.164;9.060;2022-11-20T02:13:51;6.40;99.90
30379;DHT22;17168;49.164;9.060;2022-11-20T02:16:27;6.40;99.90
30379;DHT22;17168;49.164;9.060;2022-11-20T02:19:00;6.40;99.90
30379;DHT22;17168;49.164;9.060;2022-11-20T02:21:34;6.40;99.90
30379;DHT22;17168;49.164;9.060;2022-11-20T02:24:12;6.40;99.90
30379;DHT22;17168;49.164;9.060;2022-11-20T02:26:48;6.40;99.90
30379;DHT22;17168;49.164;9.060;2022-11-20T02:29:25;6.40;99.90
30379;DHT22;17168;49.164;9.060;2022-11-20T02:31:58;6.40;99.90
30379;DHT22;17168;49.164;9.060;2022-11-20T02:34:33;6.40;99.90
30379;DHT22;17168;49.164;9.060;2022-11-20T02:37:05;6.40;99.90
30379;DHT22;17168;49.164;9.060;2022-11-20T02:39:38;6.40;99.90
30379;DHT22;17168;49.164;9.060;2022-11-20T02:42:13;6.40;99.90
30379;DHT22;17168;49.164;9.060;2022-11-20T02:44:45;6.40;99.90
30379;DHT22;17168;49.164;9.060;2022-11-20T02:47:19;6.40;99.90
30379;DHT22;17168;49.164;9.060;2022-11-20T02:49:50;6.40;99.90
30379;DHT22;17168;49.164;9.060;2022-11-20T02:52:25;6.40;99.90
30379;DHT22;17168;49.164;9.060;2022-11-20T02:54:58;6.40;99.90
30379;DHT22;17168;49.164;9.060;2022-11-20T02:57:30;6.40;99.90
30379;DHT22;17168;49.164;9.060;2022-11-20T03:00:03;6.40;99.90
30379;DHT22;17168;49.164;9.060;2022-11-20T03:02:38;6.50;99.90
30379;DHT22;17168;49.164;9.060;2022-11-20T03:05:13;6.50;99.90
30379;DHT22;17168;49.164;9.060;2022-11-20T03:07:44;6.50;99.90
30379;DHT22;17168;49.164;9.060;2022-11-20T03:10:18;6.50;99.90
30379;DHT22;17168;49.164;9.060;2022-11-20T03:12:52;6.50;99.90
30379;DHT22;17168;49.164;9.060;2022-11-20T03:15:24;6.50;99.90
30379;DHT22;17168;49.164;9.060;2022-11-20T03:17:57;6.50;99.90
30379;DHT22;17168;49.164;9.060;2022-11-20T03:20:29;6.50;99.90
30379;DHT22;17168;49.164;9.060;2022-11-20T03:23:01;6.50;99.90
30379;DHT22;17168;49.164;9.060;2022-11-20T03:25:40;6.50;99.90
30379;DHT22;17168;49.164;9.060;2022-11-20T03:28:12;6.50;99.90
30379;DHT22;17168;49.164;9.060;2022-11-20T03:30:44;6.50;99.90
30379;DHT22;17168;49.164;9.060;2022-11-20T03:33:17;6.50;99.90
30379;DHT22;17168;49.164;9.060;2022-11-20T03:35:49;6.50;99.90
30379;DHT22;17168;49.164;9.060;2022-11-20T03:38:20;6.50;99.90
30379;DHT22;17168;49.164;9.060;2022-11-20T03:40:58;6.50;99.90
30379;DHT22;17168;49.164;9.060;2022-11-20T03:43:30;6.50;99.90
30379;DHT22;17168;49.164;9.060;2022-11-20T03:46:03;6.60;99.90
30379;DHT22;17168;49.164;9.060;2022-11-20T03:48:42;6.60;99.90
30379;DHT22;17168;49.164;9.060;2022-11-20T03:51:21;6.60;99.90
30379;DHT22;17168;49.164;9.060;2022-11-20T03:53:53;6.50;99.90
30379;DHT22;17168;49.164;9.060;2022-11-20T03:56:27;6.50;99.90
30379;DHT22;17168;49.164;9.060;2022-11-20T03:59:00;6.60;99.90
30379;DHT22;17168;49.164;9.060;2022-11-20T04:01:32;6.80;99.90
30379;DHT22;17168;49.164;9.060;2022-11-20T04:04:04;6.80;99.90
30379;DHT22;17168;49.164;9.060;2022-11-20T04:06:36;6.80;99.90
30379;DHT22;17168;49.164;9.060;2022-11-20T04:09:08;6.90;99.90
30379;DHT22;17168;49.164;9.060;2022-11-20T04:11:42;7.10;99.90
30379;DHT22;17168;49.164;9.060;2022-11-20T04:14:20;7.20;99.90
30379;DHT22;17168;49.164;9.060;2022-11-20T04:16:52;7.20;99.90
30379;DHT22;17168;49.164;9.060;2022-11-20T04:19:24;7.30;99.90
30379;DHT22;17168;49.164;9.060;2022-11-20T04:21:58;7.30;99.90
30379;DHT22;17168;49.164;9.060;2022-11-20T04:24:30;7.40;99.90
30379;DHT22;17168;49.164;9.060;2022-11-20T04:27:08;7.50;99.90
30379;DHT22;17168;49.164;9.060;2022-11-20T04:29:42;7.50;99.90
30379;DHT22;17168;49.164;9.060;2022-11-20T04:32:16;7.60;99.90
30379;DHT22;17168;49.164;9.060;2022-11-20T04:34:48;7.60;99.90
30379;DHT22;17168;49.164;9.060;2022-11-20T04:37:22;7.70;99.90
30379;DHT22;17168;49.164;9.060;2022-11-20T04:39:53;7.70;99.90
30379;DHT22;17168;49.164;9.060;2022-11-20T04:42:29;7.70;99.90
30379;DHT22;17168;49.164;9.060;2022-11-20T04:45:04;7.80;99.90
30379;DHT22;17168;49.164;9.060;2022-11-20T04:47:36;7.80;99.90
30379;DHT22;17168;49.164;9.060;2022-11-20T04:50:08;7.80;99.90
30379;DHT22;17168;49.164;9.060;2022-11-20T04:52:40;7.80;99.90
30379;DHT22;17168;49.164;9.060;2022-11-20T04:55:11;7.80;99.90
30379;DHT22;17168;49.164;9.060;2022-11-20T04:57:47;7.90;99.90
30379;DHT22;17168;49.164;9.060;2022-11-20T05:00:20;7.90;99.90
30379;DHT22;17168;49.164;9.060;2022-11-20T05:02:56;7.90;99.90
30379;DHT22;17168;49.164;9.060;2022-11-20T05:05:28;7.90;99.90
30379;DHT22;17168;49.164;9.060;2022-11-20T05:07:59;7.90;99.90
30379;DHT22;17168;49.164;9.060;2022-11-20T05:10:33;7.90;99.90
30379;DHT22;17168;49.164;9.060;2022-11-20T05:13:06;7.90;99.90
30379;DHT22;17168;49.164;9.060;2022-11-20T05:15:38;8.00;99.90
30379;DHT22;17168;49.164;9.060;2022-11-20T05:18:10;8.00;99.90
30379;DHT22;17168;49.164;9.060;2022-11-20T05:20:42;7.90;99.90
30379;DHT22;17168;49.164;9.060;2022-11-20T05:23:19;8.00;99.90
30379;DHT22;17168;49.164;9.060;2022-11-20T05:25:51;8.00;99.90
30379;DHT22;17168;49.164;9.060;2022-11-20T05:28:30;8.00;99.90
30379;DHT22;17168;49.164;9.060;2022-11-20T05:31:05;8.00;99.90
30379;DHT22;17168;49.164;9.060;2022-11-20T05:33:40;8.10;99.90
30379;DHT22;17168;49.164;9.060;2022-11-20T05:36:17;8.10;99.90
30379;DHT22;17168;49.164;9.060;2022-11-20T05:38:49;8.10;99.90
30379;DHT22;17168;49.164;9.060;2022-11-20T05:41:23;8.10;99.90
30379;DHT22;17168;49.164;9.060;2022-11-20T05:43:58;8.10;99.90
30379;DHT22;17168;49.164;9.060;2022-11-20T05:46:30;8.10;99.90
30379;DHT22;17168;49.164;9.060;2022-11-20T05:49:05;8.10;99.90
30379;DHT22;17168;49.164;9.060;2022-11-20T05:51:37;8.10;99.90
30379;DHT22;17168;49.164;9.060;2022-11-20T05:54:09;8.10;99.90
30379;DHT22;17168;49.164;9.060;2022-11-20T05:56:40;8.10;99.90
30379;DHT22;17168;49.164;9.060;2022-11-20T05:59:13;8.10;99.90
30379;DHT22;17168;49.164;9.060;2022-11-20T06:01:45;8.10;99.90
30379;DHT22;17168;49.164;9.060;2022-11-20T06:04:17;8.10;99.90
30379;DHT22;17168;49.164;9.060;2022-11-20T06:06:48;8.10;99.90
30379;DHT22;17168;49.164;9.060;2022-11-20T06:09:20;8.10;99.90
30379;DHT22;17168;49.164;9.060;2022-11-20T06:11:52;8.10;99.90
30379;DHT22;17168;49.164;9.060;2022-11-20T06:14:25;8.10;99.90
30379;DHT22;17168;49.164;9.060;2022-11-20T06:16:57;8.10;99.90
30379;DHT22;17168;49.164;9.060;2022-11-20T06:19:28;8.10;99.90
30379;DHT22;17168;49.164;9.060;2022-11-20T06:22:00;8.10;99.90
30379;DHT22;17168;49.164;9.060;2022-11-20T06:24:32;8.10;99.90
30379;DHT22;17168;49.164;9.060;2022-11-20T06:27:10;8.10;99.90
30379;DHT22;17168;49.164;9.060;2022-11-20T06:29:43;8.10;99.90
30379;DHT22;17168;49.164;9.060;2022-11-20T06:32:14;8.00;99.90
30379;DHT22;17168;49.164;9.060;2022-11-20T06:34:46;8.10;99.90
30379;DHT22;17168;49.164;9.060;2022-11-20T06:37:18;8.10;99.90
30379;DHT22;17168;49.164;9.060;2022-11-20T06:39:50;8.10;99.90
30379;DHT22;17168;49.164;9.060;2022-11-20T06:42:21;8.10;99.90
30379;DHT22;17168;49.164;9.060;2022-11-20T06:44:54;8.10;99.90
30379;DHT22;17168;49.164;9.060;2022-11-20T06:47:26;8.10;99.90
30379;DHT22;17168;49.164;9.060;2022-11-20T06:49:58;8.10;99.90
30379;DHT22;17168;49.164;9.060;2022-11-20T06:52:29;8.10;99.90
30379;DHT22;17168;49.164;9.060;2022-11-20T06:55:01;8.00;99.90
30379;DHT22;17168;49.164;9.060;2022-11-20T06:57:33;8.00;99.90
30379;DHT22;17168;49.164;9.060;2022-11-20T07:00:07;8.00;99.90
30379;DHT22;17168;49.164;9.060;2022-11-20T07:02:39;8.00;99.90
30379;DHT22;17168;49.164;9.060;2022-11-20T07:05:10;8.00;99.90
30379;DHT22;17168;49.164;9.060;2022-11-20T07:07:42;7.90;99.90
30379;DHT22;17168;49.164;9.060;2022-11-20T07:10:14;7.90;99.90
30379;DHT22;17168;49.164;9.060;2022-11-20T07:12:48;7.90;99.90
30379;DHT22;17168;49.164;9.060;2022-11-20T07:15:22;7.90;99.90
30379;DHT22;17168;49.164;9.060;2022-11-20T07:17:54;7.90;99.90
30379;DHT22;17168;49.164;9.060;2022-11-20T07:20:25;7.90;99.90
30379;DHT22;17168;49.164;9.060;2022-11-20T07:22:57;7.90;99.90
30379;DHT22;17168;49.164;9.060;2022-11-20T07:25:29;7.90;99.90
30379;DHT22;17168;49.164;9.060;2022-11-20T07:28:02;7.90;99.90
30379;DHT22;17168;49.164;9.060;2022-11-20T07:30:35;7.90;99.90
30379;DHT22;17168;49.164;9.060;2022-11-20T07:33:06;7.90;99.90
30379;DHT22;17168;49.164;9.060;2022-11-20T07:35:38;7.90;99.90
30379;DHT22;17168;49.164;9.060;2022-11-20T07:38:10;7.90;99.90
30379;DHT22;17168;49.164;9.060;2022-11-20T07:40:41;7.90;99.90
30379;DHT22;17168;49.164;9.060;2022-11-20T07:43:13;7.90;99.90
30379;DHT22;17168;49.164;9.060;2022-11-20T07:45:46;8.00;99.90
30379;DHT22;17168;49.164;9.060;2022-11-20T07:48:18;8.00;99.90
30379;DHT22;17168;49.164;9.060;2022-11-20T07:50:52;8.00;99.90
30379;DHT22;17168;49.164;9.060;2022-11-20T07:53:24;8.00;99.90
30379;DHT22;17168;49.164;9.060;2022-11-20T07:55:58;8.00;99.90
30379;DHT22;17168;49.164;9.060;2022-11-20T07:58:30;8.00;99.90
30379;DHT22;17168;49.164;9.060;2022-11-20T08:01:06;8.00;99.90
30379;DHT22;17168;49.164;9.060;2022-11-20T08:03:38;8.00;99.90
30379;DHT22;17168;49.164;9.060;2022-11-20T08:06:10;8.00;99.90
30379;DHT22;17168;49.164;9.060;2022-11-20T08:08:41;8.00;99.90
30379;DHT22;17168;49.164;9.060;2022-11-20T08:11:13;8.00;99.90
30379;DHT22;17168;49.164;9.060;2022-11-20T08:14:04;8.00;99.90
30379;DHT22;17168;49.164;9.060;2022-11-20T08:16:46;8.00;99.90
30379;DHT22;17168;49.164;9.060;2022-11-20T08:19:18;8.00;99.90
30379;DHT22;17168;49.164;9.060;2022-11-20T08:21:51;8.00;99.90
30379;DHT22;17168;49.164;9.060;2022-11-20T08:24:23;8.00;99.90
30379;DHT22;17168;49.164;9.060;2022-11-20T08:26:56;8.00;99.90
30379;DHT22;17168;49.164;9.060;2022-11-20T08:29:28;8.00;99.90
30379;DHT22;17168;49.164;9.060;2022-11-20T08:32:01;8.00;99.90
30379;DHT22;17168;49.164;9.060;2022-11-20T08:34:33;8.00;99.90
30379;DHT22;17168;49.164;9.060;2022-11-20T08:37:04;8.00;99.90
30379;DHT22;17168;49.164;9.060;2022-11-20T08:39:36;8.00;99.90
30379;DHT22;17168;49.164;9.060;2022-11-20T08:42:08;8.00;99.90
30379;DHT22;17168;49.164;9.060;2022-11-20T08:44:40;8.00;99.90
30379;DHT22;17168;49.164;9.060;2022-11-20T08:47:13;8.10;99.90
30379;DHT22;17168;49.164;9.060;2022-11-20T08:49:44;8.10;99.90
30379;DHT22;17168;49.164;9.060;2022-11-20T08:52:16;8.10;99.90
30379;DHT22;17168;49.164;9.060;2022-11-20T08:54:48;8.20;99.90
30379;DHT22;17168;49.164;9.060;2022-11-20T08:57:19;8.20;99.90
30379;DHT22;17168;49.164;9.060;2022-11-20T08:59:51;8.20;99.90
30379;DHT22;17168;49.164;9.060;2022-11-20T09:02:38;8.20;99.90
30379;DHT22;17168;49.164;9.060;2022-11-20T09:05:10;8.20;99.90
30379;DHT22;17168;49.164;9.060;2022-11-20T09:07:41;8.20;99.90
30379;DHT22;17168;49.164;9.060;2022-11-20T09:10:13;8.20;99.90
30379;DHT22;17168;49.164;9.060;2022-11-20T09:13:00;8.20;99.90
30379;DHT22;17168;49.164;9.060;2022-11-20T09:15:33;8.30;99.90
30379;DHT22;17168;49.164;9.060;2022-11-20T09:18:06;8.30;99.90
30379;DHT22;17168;49.164;9.060;2022-11-20T09:20:38;8.30;99.90
30379;DHT22;17168;49.164;9.060;2022-11-20T09:23:10;8.30;99.90
30379;DHT22;17168;49.164;9.060;2022-11-20T09:25:42;8.30;99.90
30379;DHT22;17168;49.164;9.060;2022-11-20T09:28:13;8.40;99.90
30379;DHT22;17168;49.164;9.060;2022-11-20T09:30:45;8.40;99.90
30379;DHT22;17168;49.164;9.060;2022-11-20T09:33:18;8.40;99.90
30379;DHT22;17168;49.164;9.060;2022-11-20T09:35:50;8.40;99.90
30379;DHT22;17168;49.164;9.060;2022-11-20T09:38:22;8.50;99.90
30379;DHT22;17168;49.164;9.060;2022-11-20T09:40:55;8.50;99.90
30379;DHT22;17168;49.164;9.060;2022-11-20T09:43:30;8.50;99.90
30379;DHT22;17168;49.164;9.060;2022-11-20T09:46:07;8.50;99.90
30379;DHT22;17168;49.164;9.060;2022-11-20T09:48:55;8.50;99.90
30379;DHT22;17168;49.164;9.060;2022-11-20T09:51:33;8.60;99.90
30379;DHT22;17168;49.164;9.060;2022-11-20T09:54:13;8.60;99.90
30379;DHT22;17168;49.164;9.060;2022-11-20T09:56:46;8.60;99.90
30379;DHT22;17168;49.164;9.060;2022-11-20T09:59:25;8.60;99.90
30379;DHT22;17168;49.164;9.060;2022-11-20T10:01:59;8.70;99.90
30379;DHT22;17168;49.164;9.060;2022-11-20T10:04:33;8.80;99.90
30379;DHT22;17168;49.164;9.060;2022-11-20T10:07:11;8.80;99.90
30379;DHT22;17168;49.164;9.060;2022-11-20T10:10:04;8.70;99.90
30379;DHT22;17168;49.164;9.060;2022-11-20T10:12:38;8.80;99.90
30379;DHT22;17168;49.164;9.060;2022-11-20T10:15:18;8.80;99.90
30379;DHT22;17168;49.164;9.060;2022-11-20T10:17:57;8.90;99.90
30379;DHT22;17168;49.164;9.060;2022-11-20T10:20:32;8.90;99.90
30379;DHT22;17168;49.164;9.060;2022-11-20T10:23:15;8.90;99.90
30379;DHT22;17168;49.164;9.060;2022-11-20T10:25:58;8.90;99.90
30379;DHT22;17168;49.164;9.060;2022-11-20T10:28:35;8.90;99.90
30379;DHT22;17168;49.164;9.060;2022-11-20T10:31:11;8.90;99.90
30379;DHT22;17168;49.164;9.060;2022-11-20T10:33:44;8.90;99.90
30379;DHT22;17168;49.164;9.060;2022-11-20T10:36:38;8.90;99.90
30379;DHT22;17168;49.164;9.060;2022-11-20T10:39:14;8.90;99.90
30379;DHT22;17168;49.164;9.060;2022-11-20T10:41:49;8.90;99.90
30379;DHT22;17168;49.164;9.060;2022-11-20T10:44:22;8.90;99.90
30379;DHT22;17168;49.164;9.060;2022-11-20T10:47:16;8.90;99.90
30379;DHT22;17168;49.164;9.060;2022-11-20T10:49:50;8.90;99.90
30379;DHT22;17168;49.164;9.060;2022-11-20T10:52:25;8.80;99.90
30379;DHT22;17168;49.164;9.060;2022-11-20T10:55:04;8.80;99.90
30379;DHT22;17168;49.164;9.060;2022-11-20T10:57:44;8.80;99.90
30379;DHT22;17168;49.164;9.060;2022-11-20T11:00:19;8.90;99.90
30379;DHT22;17168;49.164;9.060;2022-11-20T11:02:51;8.80;99.90
30379;DHT22;17168;49.164;9.060;2022-11-20T11:05:27;8.90;99.90
30379;DHT22;17168;49.164;9.060;2022-11-20T11:08:04;8.90;99.90
30379;DHT22;17168;49.164;9.060;2022-11-20T11:10:38;8.90;99.90
30379;DHT22;17168;49.164;9.060;2022-11-20T11:13:19;8.90;99.90
30379;DHT22;17168;49.164;9.060;2022-11-20T11:15:51;8.80;99.90
30379;DHT22;17168;49.164;9.060;2022-11-20T11:18:23;8.80;99.90
30379;DHT22;17168;49.164;9.060;2022-11-20T11:20:56;8.70;99.90
30379;DHT22;17168;49.164;9.060;2022-11-20T11:23:33;8.70;99.90
30379;DHT22;17168;49.164;9.060;2022-11-20T11:26:06;8.60;99.90
30379;DHT22;17168;49.164;9.060;2022-11-20T11:28:38;8.60;99.90
30379;DHT22;17168;49.164;9.060;2022-11-20T11:31:10;8.70;99.90
30379;DHT22;17168;49.164;9.060;2022-11-20T11:33:41;8.70;99.90
30379;DHT22;17168;49.164;9.060;2022-11-20T11:36:16;8.70;99.90
30379;DHT22;17168;49.164;9.060;2022-11-20T11:38:51;8.80;99.90
30379;DHT22;17168;49.164;9.060;2022-11-20T11:41:25;8.80;99.90
30379;DHT22;17168;49.164;9.060;2022-11-20T11:44:00;8.80;99.90
30379;DHT22;17168;49.164;9.060;2022-11-20T11:46:52;8.90;99.90
30379;DHT22;17168;49.164;9.060;2022-11-20T11:49:24;9.00;99.90
30379;DHT22;17168;49.164;9.060;2022-11-20T11:51:59;9.10;99.90
30379;DHT22;17168;49.164;9.060;2022-11-20T11:54:36;9.10;99.90
30379;DHT22;17168;49.164;9.060;2022-11-20T11:57:10;9.30;99.90
30379;DHT22;17168;49.164;9.060;2022-11-20T11:59:53;9.50;99.90
30379;DHT22;17168;49.164;9.060;2022-11-20T12:02:29;9.90;99.90
30379;DHT22;17168;49.164;9.060;2022-11-20T12:05:05;10.70;99.90
30379;DHT22;17168;49.164;9.060;2022-11-20T12:07:41;10.50;99.90
30379;DHT22;17168;49.164;9.060;2022-11-20T12:10:21;10.70;99.90
30379;DHT22;17168;49.164;9.060;2022-11-20T12:12:54;11.00;99.90
30379;DHT22;17168;49.164;9.060;2022-11-20T12:15:29;11.40;99.90
30379;DHT22;17168;49.164;9.060;2022-11-20T12:18:01;11.60;99.90
30379;DHT22;17168;49.164;9.060;2022-11-20T12:20:35;11.80;99.90
30379;DHT22;17168;49.164;9.060;2022-11-20T12:23:13;12.10;99.90
30379;DHT22;17168;49.164;9.060;2022-11-20T12:25:48;12.40;99.90
30379;DHT22;17168;49.164;9.060;2022-11-20T12:28:31;12.50;99.90
30379;DHT22;17168;49.164;9.060;2022-11-20T12:31:13;12.20;99.90
30379;DHT22;17168;49.164;9.060;2022-11-20T12:36:40;11.70;99.90
30379;DHT22;17168;49.164;9.060;2022-11-20T12:39:29;11.40;99.90
30379;DHT22;17168;49.164;9.060;2022-11-20T12:46:08;10.90;99.90
30379;DHT22;17168;49.164;9.060;2022-11-20T12:49:04;10.70;99.90
30379;DHT22;17168;49.164;9.060;2022-11-20T12:51:58;10.50;99.90
30379;DHT22;17168;49.164;9.060;2022-11-20T12:54:54;10.40;99.90
30379;DHT22;17168;49.164;9.060;2022-11-20T12:57:29;10.30;99.90
30379;DHT22;17168;49.164;9.060;2022-11-20T13:00:10;10.10;99.90
30379;DHT22;17168;49.164;9.060;2022-11-20T13:03:03;10.10;99.90
30379;DHT22;17168;49.164;9.060;2022-11-20T13:05:41;10.00;99.90
30379;DHT22;17168;49.164;9.060;2022-11-20T13:08:16;9.90;99.90
30379;DHT22;17168;49.164;9.060;2022-11-20T13:10:51;9.80;99.90
30379;DHT22;17168;49.164;9.060;2022-11-20T13:13:29;9.80;99.90
30379;DHT22;17168;49.164;9.060;2022-11-20T13:16:04;9.80;99.90
30379;DHT22;17168;49.164;9.060;2022-11-20T13:18:37;9.80;99.90
30379;DHT22;17168;49.164;9.060;2022-11-20T13:21:16;9.90;99.90
30379;DHT22;17168;49.164;9.060;2022-11-20T13:23:48;10.20;99.90
30379;DHT22;17168;49.164;9.060;2022-11-20T13:26:22;10.50;99.90
30379;DHT22;17168;49.164;9.060;2022-11-20T13:29:02;10.60;99.90
30379;DHT22;17168;49.164;9.060;2022-11-20T13:31:35;10.80;99.90
30379;DHT22;17168;49.164;9.060;2022-11-20T13:34:13;10.90;99.90
30379;DHT22;17168;49.164;9.060;2022-11-20T13:36:50;11.00;99.90
30379;DHT22;17168;49.164;9.060;2022-11-20T13:39:26;11.00;99.90
30379;DHT22;17168;49.164;9.060;2022-11-20T13:41:59;11.10;99.90
30379;DHT22;17168;49.164;9.060;2022-11-20T13:44:37;11.10;99.90
30379;DHT22;17168;49.164;9.060;2022-11-20T13:47:20;11.20;99.90
30379;DHT22;17168;49.164;9.060;2022-11-20T13:49:57;11.20;99.90
30379;DHT22;17168;49.164;9.060;2022-11-20T13:52:42;11.20;99.90
30379;DHT22;17168;49.164;9.060;2022-11-20T13:55:23;11.20;99.90
30379;DHT22;17168;49.164;9.060;2022-11-20T13:58:15;11.10;99.90
30379;DHT22;17168;49.164;9.060;2022-11-20T14:00:55;11.00;99.90
30379;DHT22;17168;49.164;9.060;2022-11-20T14:03:30;10.90;99.90
30379;DHT22;17168;49.164;9.060;2022-11-20T14:06:29;10.80;99.90
30379;DHT22;17168;49.164;9.060;2022-11-20T14:09:01;10.80;99.90
30379;DHT22;17168;49.164;9.060;2022-11-20T14:11:33;10.70;99.90
30379;DHT22;17168;49.164;9.060;2022-11-20T14:14:15;10.60;99.90
30379;DHT22;17168;49.164;9.060;2022-11-20T14:16:48;10.60;99.90
30379;DHT22;17168;49.164;9.060;2022-11-20T14:19:26;10.50;99.90
30379;DHT22;17168;49.164;9.060;2022-11-20T14:22:17;10.50;99.90
30379;DHT22;17168;49.164;9.060;2022-11-20T14:25:04;10.50;99.90
30379;DHT22;17168;49.164;9.060;2022-11-20T14:27:37;10.60;99.90
30379;DHT22;17168;49.164;9.060;2022-11-20T14:30:14;10.50;99.90
30379;DHT22;17168;49.164;9.060;2022-11-20T14:32:47;10.50;99.90
30379;DHT22;17168;49.164;9.060;2022-11-20T14:35:23;10.50;99.40
30379;DHT22;17168;49.164;9.060;2022-11-20T14:37:56;10.50;98.50
30379;DHT22;17168;49.164;9.060;2022-11-20T14:40:31;10.40;98.10
30379;DHT22;17168;49.164;9.060;2022-11-20T14:43:14;10.40;98.20
30379;DHT22;17168;49.164;9.060;2022-11-20T14:45:48;10.30;98.70
30379;DHT22;17168;49.164;9.060;2022-11-20T14:48:28;10.30;99.00
30379;DHT22;17168;49.164;9.060;2022-11-20T14:51:02;10.30;99.40
30379;DHT22;17168;49.164;9.060;2022-11-20T14:53:36;10.20;99.40
30379;DHT22;17168;49.164;9.060;2022-11-20T14:56:08;10.20;99.80
30379;DHT22;17168;49.164;9.060;2022-11-20T14:58:40;10.10;99.80
30379;DHT22;17168;49.164;9.060;2022-11-20T15:01:13;10.10;99.80
30379;DHT22;17168;49.164;9.060;2022-11-20T15:03:45;10.10;99.10
30379;DHT22;17168;49.164;9.060;2022-11-20T15:06:25;10.00;98.60
30379;DHT22;17168;49.164;9.060;2022-11-20T15:08:59;10.00;97.70
30379;DHT22;17168;49.164;9.060;2022-11-20T15:11:32;9.90;97.60
30379;DHT22;17168;49.164;9.060;2022-11-20T15:14:08;9.90;97.30
30379;DHT22;17168;49.164;9.060;2022-11-20T15:16:43;9.80;97.70
30379;DHT22;17168;49.164;9.060;2022-11-20T15:19:18;9.80;97.60
30379;DHT22;17168;49.164;9.060;2022-11-20T15:21:50;9.70;97.50
30379;DHT22;17168;49.164;9.060;2022-11-20T15:24:24;9.70;97.60
30379;DHT22;17168;49.164;9.060;2022-11-20T15:26:56;9.60;97.80
30379;DHT22;17168;49.164;9.060;2022-11-20T15:29:28;9.50;98.00
30379;DHT22;17168;49.164;9.060;2022-11-20T15:32:00;9.50;98.20
30379;DHT22;17168;49.164;9.060;2022-11-20T15:34:35;9.40;98.40
30379;DHT22;17168;49.164;9.060;2022-11-20T15:37:07;9.40;98.80
30379;DHT22;17168;49.164;9.060;2022-11-20T15:39:40;9.40;99.10
30379;DHT22;17168;49.164;9.060;2022-11-20T15:42:12;9.30;99.40
30379;DHT22;17168;49.164;9.060;2022-11-20T15:44:43;9.30;99.70
30379;DHT22;17168;49.164;9.060;2022-11-20T15:47:15;9.30;99.90
30379;DHT22;17168;49.164;9.060;2022-11-20T15:49:48;9.30;99.90
30379;DHT22;17168;49.164;9.060;2022-11-20T15:52:20;9.20;99.90
30379;DHT22;17168;49.164;9.060;2022-11-20T15:54:53;9.20;99.90
30379;DHT22;17168;49.164;9.060;2022-11-20T15:57:25;9.10;99.90
30379;DHT22;17168;49.164;9.060;2022-11-20T15:59:56;9.10;99.90
30379;DHT22;17168;49.164;9.060;2022-11-20T16:02:29;9.10;99.90
30379;DHT22;17168;49.164;9.060;2022-11-20T16:05:00;9.10;99.90
30379;DHT22;17168;49.164;9.060;2022-11-20T16:07:32;9.10;99.90
30379;DHT22;17168;49.164;9.060;2022-11-20T16:10:06;9.10;99.90
30379;DHT22;17168;49.164;9.060;2022-11-20T16:12:37;9.20;99.90
30379;DHT22;17168;49.164;9.060;2022-11-20T16:15:28;9.50;99.90
30379;DHT22;17168;49.164;9.060;2022-11-20T16:18:19;9.80;99.90
30379;DHT22;17168;49.164;9.060;2022-11-20T16:20:52;10.10;99.90
30379;DHT22;17168;49.164;9.060;2022-11-20T16:23:24;10.40;99.90
30379;DHT22;17168;49.164;9.060;2022-11-20T16:25:57;10.70;99.90
30379;DHT22;17168;49.164;9.060;2022-11-20T16:28:29;10.90;99.90
30379;DHT22;17168;49.164;9.060;2022-11-20T16:31:08;11.10;99.90
30379;DHT22;17168;49.164;9.060;2022-11-20T16:33:40;11.30;99.90
30379;DHT22;17168;49.164;9.060;2022-11-20T16:36:14;11.60;99.90
30379;DHT22;17168;49.164;9.060;2022-11-20T16:38:45;11.70;99.90